sensor_id;sensor_type;location;lat;lon;timestamp;P1;durP1;ratioP1;P2;durP2;ratioP2
39848;SDS011;25518;47.878;15.914;2023-04-23T00:02:25;4.85;;;3.17;;
39848;SDS011;25518;47.878;15.914;2023-04-23T00:05:17;5.80;;;3.20;;
39848;SDS011;25518;47.878;15.914;2023-04-23T00:08:09;5.82;;;3.50;;
39848;SDS011;25518;47.878;15.914;2023-04-23T00:11:01;8.48;;;3.33;;
39848;SDS011;25518;47.878;15.914;2023-04-23T00:13:50;5.70;;;3.45;;
39848;SDS011;25518;47.878;15.914;2023-04-23T00:16:40;5.85;;;3.50;;
39848;SDS011;25518;47.878;15.914;2023-04-23T00:19:30;8.07;;;4.85;;
39848;SDS011;25518;47.878;15.914;2023-04-23T00:22:20;7.75;;;4.13;;
39848;SDS011;25518;47.878;15.914;2023-04-23T00:25:09;6.15;;;3.30;;
39848;SDS011;25518;47.878;15.914;2023-04-23T00:27:59;6.78;;;3.13;;
39848;SDS011;25518;47.878;15.914;2023-04-23T00:30:49;7.30;;;3.58;;
39848;SDS011;25518;47.878;15.914;2023-04-23T00:33:38;7.22;;;3.67;;
39848;SDS011;25518;47.878;15.914;2023-04-23T00:36:28;4.60;;;3.15;;
39848;SDS011;25518;47.878;15.914;2023-04-23T00:39:17;6.22;;;3.42;;
39848;SDS011;25518;47.878;15.914;2023-04-23T00:42:07;7.00;;;3.60;;
39848;SDS011;25518;47.878;15.914;2023-04-23T00:45:00;6.18;;;3.67;;
39848;SDS011;25518;47.878;15.914;2023-04-23T00:47:50;6.00;;;3.50;;
39848;SDS011;25518;47.878;15.914;2023-04-23T00:50:41;6.50;;;3.45;;
39848;SDS011;25518;47.878;15.914;2023-04-23T00:53:31;5.20;;;3.60;;
39848;SDS011;25518;47.878;15.914;2023-04-23T00:56:21;5.63;;;3.40;;
39848;SDS011;25518;47.878;15.914;2023-04-23T00:59:11;5.18;;;3.55;;
39848;SDS011;25518;47.878;15.914;2023-04-23T01:02:01;6.00;;;3.38;;
39848;SDS011;25518;47.878;15.914;2023-04-23T01:04:51;7.40;;;3.72;;
39848;SDS011;25518;47.878;15.914;2023-04-23T01:07:43;6.43;;;3.50;;
39848;SDS011;25518;47.878;15.914;2023-04-23T01:10:33;5.50;;;3.30;;
39848;SDS011;25518;47.878;15.914;2023-04-23T01:13:23;5.45;;;3.40;;
39848;SDS011;25518;47.878;15.914;2023-04-23T01:16:17;7.53;;;3.60;;
39848;SDS011;25518;47.878;15.914;2023-04-23T01:19:07;5.05;;;3.40;;
39848;SDS011;25518;47.878;15.914;2023-04-23T01:21:59;6.67;;;3.80;;
39848;SDS011;25518;47.878;15.914;2023-04-23T01:24:49;7.57;;;3.15;;
39848;SDS011;25518;47.878;15.914;2023-04-23T01:27:40;7.03;;;3.47;;
39848;SDS011;25518;47.878;15.914;2023-04-23T01:30:29;5.00;;;3.20;;
39848;SDS011;25518;47.878;15.914;2023-04-23T01:33:19;4.97;;;3.10;;
39848;SDS011;25518;47.878;15.914;2023-04-23T01:36:08;5.75;;;3.83;;
39848;SDS011;25518;47.878;15.914;2023-04-23T01:38:59;5.25;;;3.50;;
39848;SDS011;25518;47.878;15.914;2023-04-23T01:41:49;6.07;;;3.45;;
39848;SDS011;25518;47.878;15.914;2023-04-23T01:44:39;7.13;;;3.63;;
39848;SDS011;25518;47.878;15.914;2023-04-23T01:47:29;7.18;;;4.35;;
39848;SDS011;25518;47.878;15.914;2023-04-23T01:50:19;6.50;;;3.53;;
39848;SDS011;25518;47.878;15.914;2023-04-23T01:53:12;7.50;;;3.65;;
39848;SDS011;25518;47.878;15.914;2023-04-23T01:56:01;5.80;;;3.30;;
39848;SDS011;25518;47.878;15.914;2023-04-23T01:58:51;6.68;;;3.42;;
39848;SDS011;25518;47.878;15.914;2023-04-23T02:01:41;5.90;;;3.25;;
39848;SDS011;25518;47.878;15.914;2023-04-23T02:04:33;6.60;;;3.15;;
39848;SDS011;25518;47.878;15.914;2023-04-23T02:07:23;7.90;;;3.70;;
39848;SDS011;25518;47.878;15.914;2023-04-23T02:10:13;6.10;;;3.45;;
39848;SDS011;25518;47.878;15.914;2023-04-23T02:13:03;5.88;;;3.70;;
39848;SDS011;25518;47.878;15.914;2023-04-23T02:15:52;6.40;;;3.60;;
39848;SDS011;25518;47.878;15.914;2023-04-23T02:18:42;5.05;;;3.20;;
39848;SDS011;25518;47.878;15.914;2023-04-23T02:21:31;7.13;;;3.35;;
39848;SDS011;25518;47.878;15.914;2023-04-23T02:24:21;5.95;;;3.67;;
39848;SDS011;25518;47.878;15.914;2023-04-23T02:27:11;6.53;;;3.25;;
39848;SDS011;25518;47.878;15.914;2023-04-23T02:30:00;5.40;;;2.70;;
39848;SDS011;25518;47.878;15.914;2023-04-23T02:32:50;4.95;;;2.97;;
39848;SDS011;25518;47.878;15.914;2023-04-23T02:35:40;4.65;;;3.10;;
39848;SDS011;25518;47.878;15.914;2023-04-23T02:38:29;7.47;;;3.27;;
39848;SDS011;25518;47.878;15.914;2023-04-23T02:41:19;6.93;;;3.20;;
39848;SDS011;25518;47.878;15.914;2023-04-23T02:44:09;7.28;;;3.30;;
39848;SDS011;25518;47.878;15.914;2023-04-23T02:46:59;5.77;;;3.07;;
39848;SDS011;25518;47.878;15.914;2023-04-23T02:49:48;6.22;;;2.70;;
39848;SDS011;25518;47.878;15.914;2023-04-23T02:52:38;4.82;;;3.28;;
39848;SDS011;25518;47.878;15.914;2023-04-23T02:55:27;4.95;;;3.28;;
39848;SDS011;25518;47.878;15.914;2023-04-23T02:58:19;5.32;;;3.45;;
39848;SDS011;25518;47.878;15.914;2023-04-23T03:18:05;4.97;;;3.27;;
39848;SDS011;25518;47.878;15.914;2023-04-23T03:20:56;7.13;;;3.10;;
39848;SDS011;25518;47.878;15.914;2023-04-23T03:23:45;4.18;;;2.60;;
39848;SDS011;25518;47.878;15.914;2023-04-23T03:26:35;5.75;;;3.35;;
39848;SDS011;25518;47.878;15.914;2023-04-23T03:29:25;4.85;;;3.20;;
39848;SDS011;25518;47.878;15.914;2023-04-23T03:32:14;5.88;;;3.58;;
39848;SDS011;25518;47.878;15.914;2023-04-23T03:35:04;5.20;;;3.47;;
39848;SDS011;25518;47.878;15.914;2023-04-23T03:37:54;4.80;;;3.00;;
39848;SDS011;25518;47.878;15.914;2023-04-23T03:40:44;5.18;;;3.28;;
39848;SDS011;25518;47.878;15.914;2023-04-23T03:43:34;5.53;;;3.15;;
39848;SDS011;25518;47.878;15.914;2023-04-23T03:46:23;5.77;;;3.10;;
39848;SDS011;25518;47.878;15.914;2023-04-23T03:49:13;8.50;;;3.50;;
39848;SDS011;25518;47.878;15.914;2023-04-23T03:52:03;5.35;;;2.95;;
39848;SDS011;25518;47.878;15.914;2023-04-23T03:54:52;5.05;;;2.80;;
39848;SDS011;25518;47.878;15.914;2023-04-23T03:57:42;5.05;;;3.28;;
39848;SDS011;25518;47.878;15.914;2023-04-23T04:00:31;5.30;;;3.35;;
39848;SDS011;25518;47.878;15.914;2023-04-23T04:03:21;6.82;;;3.13;;
39848;SDS011;25518;47.878;15.914;2023-04-23T04:06:11;5.45;;;3.30;;
39848;SDS011;25518;47.878;15.914;2023-04-23T04:09:00;5.90;;;3.33;;
39848;SDS011;25518;47.878;15.914;2023-04-23T04:11:50;7.53;;;3.45;;
39848;SDS011;25518;47.878;15.914;2023-04-23T04:14:41;6.53;;;3.55;;
39848;SDS011;25518;47.878;15.914;2023-04-23T04:17:31;5.65;;;3.30;;
39848;SDS011;25518;47.878;15.914;2023-04-23T04:20:20;6.07;;;3.20;;
39848;SDS011;25518;47.878;15.914;2023-04-23T04:23:10;6.80;;;3.80;;
39848;SDS011;25518;47.878;15.914;2023-04-23T04:26:00;5.45;;;3.40;;
39848;SDS011;25518;47.878;15.914;2023-04-23T04:28:50;4.87;;;3.20;;
39848;SDS011;25518;47.878;15.914;2023-04-23T04:31:39;6.32;;;3.10;;
39848;SDS011;25518;47.878;15.914;2023-04-23T04:34:29;8.63;;;3.72;;
39848;SDS011;25518;47.878;15.914;2023-04-23T04:37:19;4.90;;;2.95;;
39848;SDS011;25518;47.878;15.914;2023-04-23T04:40:09;5.75;;;3.60;;
39848;SDS011;25518;47.878;15.914;2023-04-23T04:42:59;6.93;;;3.70;;
39848;SDS011;25518;47.878;15.914;2023-04-23T04:45:49;5.25;;;3.50;;
39848;SDS011;25518;47.878;15.914;2023-04-23T04:48:39;7.15;;;3.63;;
39848;SDS011;25518;47.878;15.914;2023-04-23T04:51:28;4.10;;;2.78;;
39848;SDS011;25518;47.878;15.914;2023-04-23T04:54:18;5.32;;;3.15;;
39848;SDS011;25518;47.878;15.914;2023-04-23T04:57:08;6.97;;;3.10;;
39848;SDS011;25518;47.878;15.914;2023-04-23T05:00:00;6.00;;;3.33;;
39848;SDS011;25518;47.878;15.914;2023-04-23T05:02:52;6.78;;;2.97;;
39848;SDS011;25518;47.878;15.914;2023-04-23T05:05:43;5.10;;;3.05;;
39848;SDS011;25518;47.878;15.914;2023-04-23T05:08:33;7.40;;;3.50;;
39848;SDS011;25518;47.878;15.914;2023-04-23T05:11:23;5.82;;;3.10;;
39848;SDS011;25518;47.878;15.914;2023-04-23T05:14:12;5.63;;;3.60;;
39848;SDS011;25518;47.878;15.914;2023-04-23T05:17:02;6.07;;;3.10;;
39848;SDS011;25518;47.878;15.914;2023-04-23T05:19:51;4.63;;;2.80;;
39848;SDS011;25518;47.878;15.914;2023-04-23T05:22:41;4.72;;;3.30;;
39848;SDS011;25518;47.878;15.914;2023-04-23T05:25:31;7.05;;;3.40;;
39848;SDS011;25518;47.878;15.914;2023-04-23T05:28:22;4.50;;;3.08;;
39848;SDS011;25518;47.878;15.914;2023-04-23T05:31:12;7.28;;;3.47;;
39848;SDS011;25518;47.878;15.914;2023-04-23T05:34:01;6.43;;;3.23;;
39848;SDS011;25518;47.878;15.914;2023-04-23T05:36:51;6.63;;;3.83;;
39848;SDS011;25518;47.878;15.914;2023-04-23T05:39:41;7.13;;;3.40;;
39848;SDS011;25518;47.878;15.914;2023-04-23T05:42:31;4.85;;;3.20;;
39848;SDS011;25518;47.878;15.914;2023-04-23T05:45:20;6.22;;;4.03;;
39848;SDS011;25518;47.878;15.914;2023-04-23T05:48:10;5.70;;;2.80;;
39848;SDS011;25518;47.878;15.914;2023-04-23T05:50:59;5.57;;;3.08;;
39848;SDS011;25518;47.878;15.914;2023-04-23T05:53:49;5.85;;;3.10;;
39848;SDS011;25518;47.878;15.914;2023-04-23T05:56:39;5.45;;;3.28;;
39848;SDS011;25518;47.878;15.914;2023-04-23T05:59:29;4.95;;;3.08;;
39848;SDS011;25518;47.878;15.914;2023-04-23T06:02:19;5.97;;;3.20;;
39848;SDS011;25518;47.878;15.914;2023-04-23T06:05:09;4.93;;;3.17;;
39848;SDS011;25518;47.878;15.914;2023-04-23T06:07:59;7.10;;;4.00;;
39848;SDS011;25518;47.878;15.914;2023-04-23T06:10:48;6.67;;;3.40;;
39848;SDS011;25518;47.878;15.914;2023-04-23T06:13:38;5.95;;;3.40;;
39848;SDS011;25518;47.878;15.914;2023-04-23T06:16:28;5.47;;;3.42;;
39848;SDS011;25518;47.878;15.914;2023-04-23T06:19:18;4.88;;;3.13;;
39848;SDS011;25518;47.878;15.914;2023-04-23T06:22:07;6.80;;;3.42;;
39848;SDS011;25518;47.878;15.914;2023-04-23T06:24:56;5.60;;;3.55;;
39848;SDS011;25518;47.878;15.914;2023-04-23T06:27:46;7.22;;;3.35;;
39848;SDS011;25518;47.878;15.914;2023-04-23T06:30:36;6.03;;;3.50;;
39848;SDS011;25518;47.878;15.914;2023-04-23T06:33:25;7.10;;;3.28;;
39848;SDS011;25518;47.878;15.914;2023-04-23T06:36:15;7.07;;;4.10;;
39848;SDS011;25518;47.878;15.914;2023-04-23T06:39:05;7.32;;;4.43;;
39848;SDS011;25518;47.878;15.914;2023-04-23T06:41:54;5.25;;;3.80;;
39848;SDS011;25518;47.878;15.914;2023-04-23T06:44:46;7.88;;;3.65;;
39848;SDS011;25518;47.878;15.914;2023-04-23T06:47:36;4.97;;;3.25;;
39848;SDS011;25518;47.878;15.914;2023-04-23T06:50:25;9.30;;;3.75;;
39848;SDS011;25518;47.878;15.914;2023-04-23T06:53:15;6.47;;;3.10;;
39848;SDS011;25518;47.878;15.914;2023-04-23T06:56:05;6.03;;;3.50;;
39848;SDS011;25518;47.878;15.914;2023-04-23T06:58:55;6.88;;;3.70;;
39848;SDS011;25518;47.878;15.914;2023-04-23T07:01:45;5.37;;;3.20;;
39848;SDS011;25518;47.878;15.914;2023-04-23T07:04:34;5.28;;;3.40;;
39848;SDS011;25518;47.878;15.914;2023-04-23T07:07:24;5.78;;;3.38;;
39848;SDS011;25518;47.878;15.914;2023-04-23T07:10:14;5.80;;;3.25;;
39848;SDS011;25518;47.878;15.914;2023-04-23T07:13:04;4.53;;;2.60;;
39848;SDS011;25518;47.878;15.914;2023-04-23T07:15:53;5.70;;;3.20;;
39848;SDS011;25518;47.878;15.914;2023-04-23T07:18:43;5.43;;;3.50;;
39848;SDS011;25518;47.878;15.914;2023-04-23T07:21:33;4.88;;;3.13;;
39848;SDS011;25518;47.878;15.914;2023-04-23T07:24:22;5.70;;;3.08;;
39848;SDS011;25518;47.878;15.914;2023-04-23T07:27:14;8.27;;;3.33;;
39848;SDS011;25518;47.878;15.914;2023-04-23T07:30:04;4.82;;;3.22;;
39848;SDS011;25518;47.878;15.914;2023-04-23T07:32:54;5.33;;;3.20;;
39848;SDS011;25518;47.878;15.914;2023-04-23T07:35:44;5.22;;;2.75;;
39848;SDS011;25518;47.878;15.914;2023-04-23T07:38:33;7.57;;;3.15;;
39848;SDS011;25518;47.878;15.914;2023-04-23T07:41:23;4.93;;;3.00;;
39848;SDS011;25518;47.878;15.914;2023-04-23T07:44:13;4.45;;;2.78;;
39848;SDS011;25518;47.878;15.914;2023-04-23T07:47:03;8.13;;;2.88;;
39848;SDS011;25518;47.878;15.914;2023-04-23T07:49:53;3.97;;;2.58;;
39848;SDS011;25518;47.878;15.914;2023-04-23T07:52:43;5.03;;;2.85;;
39848;SDS011;25518;47.878;15.914;2023-04-23T07:55:32;6.20;;;3.00;;
39848;SDS011;25518;47.878;15.914;2023-04-23T07:58:23;3.67;;;2.40;;
39848;SDS011;25518;47.878;15.914;2023-04-23T08:01:13;6.22;;;2.90;;
39848;SDS011;25518;47.878;15.914;2023-04-23T08:04:03;4.60;;;2.53;;
39848;SDS011;25518;47.878;15.914;2023-04-23T08:06:52;4.20;;;2.70;;
39848;SDS011;25518;47.878;15.914;2023-04-23T08:09:42;4.85;;;2.50;;
39848;SDS011;25518;47.878;15.914;2023-04-23T08:12:32;4.35;;;2.63;;
39848;SDS011;25518;47.878;15.914;2023-04-23T08:15:23;3.42;;;2.30;;
39848;SDS011;25518;47.878;15.914;2023-04-23T08:18:13;4.75;;;2.40;;
39848;SDS011;25518;47.878;15.914;2023-04-23T08:21:03;4.70;;;2.60;;
39848;SDS011;25518;47.878;15.914;2023-04-23T08:23:52;3.65;;;2.03;;
39848;SDS011;25518;47.878;15.914;2023-04-23T08:26:43;4.80;;;2.22;;
39848;SDS011;25518;47.878;15.914;2023-04-23T08:29:32;3.97;;;2.42;;
39848;SDS011;25518;47.878;15.914;2023-04-23T08:32:22;4.00;;;2.42;;
39848;SDS011;25518;47.878;15.914;2023-04-23T08:35:12;7.47;;;2.50;;
39848;SDS011;25518;47.878;15.914;2023-04-23T08:38:02;6.70;;;2.45;;
39848;SDS011;25518;47.878;15.914;2023-04-23T08:40:54;5.00;;;2.28;;
39848;SDS011;25518;47.878;15.914;2023-04-23T08:43:46;3.58;;;2.08;;
39848;SDS011;25518;47.878;15.914;2023-04-23T08:46:41;4.85;;;2.42;;
39848;SDS011;25518;47.878;15.914;2023-04-23T08:49:32;5.38;;;2.13;;
39848;SDS011;25518;47.878;15.914;2023-04-23T08:52:24;5.68;;;2.75;;
39848;SDS011;25518;47.878;15.914;2023-04-23T08:55:15;5.18;;;2.00;;
39848;SDS011;25518;47.878;15.914;2023-04-23T08:58:06;3.67;;;2.03;;
39848;SDS011;25518;47.878;15.914;2023-04-23T09:00:56;5.63;;;2.42;;
39848;SDS011;25518;47.878;15.914;2023-04-23T09:03:46;4.70;;;2.03;;
39848;SDS011;25518;47.878;15.914;2023-04-23T09:06:36;4.80;;;2.00;;
39848;SDS011;25518;47.878;15.914;2023-04-23T09:09:26;4.77;;;2.20;;
39848;SDS011;25518;47.878;15.914;2023-04-23T09:12:17;7.18;;;2.50;;
39848;SDS011;25518;47.878;15.914;2023-04-23T09:15:09;4.63;;;2.60;;
39848;SDS011;25518;47.878;15.914;2023-04-23T09:18:00;5.33;;;2.30;;
39848;SDS011;25518;47.878;15.914;2023-04-23T09:20:50;5.53;;;2.50;;
39848;SDS011;25518;47.878;15.914;2023-04-23T09:23:41;4.82;;;2.55;;
39848;SDS011;25518;47.878;15.914;2023-04-23T09:26:31;4.80;;;2.53;;
39848;SDS011;25518;47.878;15.914;2023-04-23T09:29:21;5.25;;;2.40;;
39848;SDS011;25518;47.878;15.914;2023-04-23T09:32:11;5.05;;;2.70;;
39848;SDS011;25518;47.878;15.914;2023-04-23T09:35:01;7.53;;;2.42;;
39848;SDS011;25518;47.878;15.914;2023-04-23T09:37:53;5.72;;;2.50;;
39848;SDS011;25518;47.878;15.914;2023-04-23T09:40:42;5.90;;;2.30;;
39848;SDS011;25518;47.878;15.914;2023-04-23T09:43:32;6.40;;;2.53;;
39848;SDS011;25518;47.878;15.914;2023-04-23T09:46:39;5.18;;;2.58;;
39848;SDS011;25518;47.878;15.914;2023-04-23T09:49:30;5.63;;;2.80;;
39848;SDS011;25518;47.878;15.914;2023-04-23T09:52:19;4.83;;;2.30;;
39848;SDS011;25518;47.878;15.914;2023-04-23T09:55:10;5.83;;;2.53;;
39848;SDS011;25518;47.878;15.914;2023-04-23T09:58:00;5.77;;;2.20;;
39848;SDS011;25518;47.878;15.914;2023-04-23T10:00:52;5.50;;;2.33;;
39848;SDS011;25518;47.878;15.914;2023-04-23T10:03:42;3.40;;;2.05;;
39848;SDS011;25518;47.878;15.914;2023-04-23T10:06:32;5.72;;;2.90;;
39848;SDS011;25518;47.878;15.914;2023-04-23T10:09:22;4.80;;;2.50;;
39848;SDS011;25518;47.878;15.914;2023-04-23T10:12:13;3.75;;;2.45;;
39848;SDS011;25518;47.878;15.914;2023-04-23T10:15:05;5.22;;;2.17;;
39848;SDS011;25518;47.878;15.914;2023-04-23T10:17:56;4.75;;;2.45;;
39848;SDS011;25518;47.878;15.914;2023-04-23T10:20:48;7.40;;;2.92;;
39848;SDS011;25518;47.878;15.914;2023-04-23T10:23:39;3.50;;;2.20;;
39848;SDS011;25518;47.878;15.914;2023-04-23T10:26:31;5.53;;;2.70;;
39848;SDS011;25518;47.878;15.914;2023-04-23T10:29:25;6.70;;;2.38;;
39848;SDS011;25518;47.878;15.914;2023-04-23T10:32:17;4.50;;;2.28;;
39848;SDS011;25518;47.878;15.914;2023-04-23T10:35:08;3.70;;;2.00;;
39848;SDS011;25518;47.878;15.914;2023-04-23T10:37:58;3.47;;;1.90;;
39848;SDS011;25518;47.878;15.914;2023-04-23T10:40:49;4.85;;;2.17;;
39848;SDS011;25518;47.878;15.914;2023-04-23T10:43:40;3.78;;;2.05;;
39848;SDS011;25518;47.878;15.914;2023-04-23T10:46:29;4.25;;;1.90;;
39848;SDS011;25518;47.878;15.914;2023-04-23T10:49:21;3.13;;;2.13;;
39848;SDS011;25518;47.878;15.914;2023-04-23T10:52:14;4.47;;;2.47;;
39848;SDS011;25518;47.878;15.914;2023-04-23T10:55:05;6.60;;;2.42;;
39848;SDS011;25518;47.878;15.914;2023-04-23T10:58:04;4.80;;;2.50;;
39848;SDS011;25518;47.878;15.914;2023-04-23T11:00:55;3.85;;;2.33;;
39848;SDS011;25518;47.878;15.914;2023-04-23T11:03:46;4.23;;;2.30;;
39848;SDS011;25518;47.878;15.914;2023-04-23T11:06:52;3.83;;;2.13;;
39848;SDS011;25518;47.878;15.914;2023-04-23T11:09:45;4.47;;;2.30;;
39848;SDS011;25518;47.878;15.914;2023-04-23T11:12:37;4.70;;;2.28;;
39848;SDS011;25518;47.878;15.914;2023-04-23T11:15:28;5.75;;;2.60;;
39848;SDS011;25518;47.878;15.914;2023-04-23T11:18:19;4.72;;;2.42;;
39848;SDS011;25518;47.878;15.914;2023-04-23T11:21:12;5.40;;;2.50;;
39848;SDS011;25518;47.878;15.914;2023-04-23T11:24:01;4.55;;;2.60;;
39848;SDS011;25518;47.878;15.914;2023-04-23T11:26:54;4.85;;;2.42;;
39848;SDS011;25518;47.878;15.914;2023-04-23T11:29:45;4.82;;;2.50;;
39848;SDS011;25518;47.878;15.914;2023-04-23T11:32:35;3.70;;;2.30;;
39848;SDS011;25518;47.878;15.914;2023-04-23T11:35:24;4.72;;;2.47;;
39848;SDS011;25518;47.878;15.914;2023-04-23T11:38:16;4.38;;;2.30;;
39848;SDS011;25518;47.878;15.914;2023-04-23T11:41:08;3.65;;;2.38;;
39848;SDS011;25518;47.878;15.914;2023-04-23T11:43:58;5.53;;;2.85;;
39848;SDS011;25518;47.878;15.914;2023-04-23T11:46:48;7.10;;;2.70;;
39848;SDS011;25518;47.878;15.914;2023-04-23T11:49:39;4.47;;;2.42;;
39848;SDS011;25518;47.878;15.914;2023-04-23T11:52:30;3.53;;;2.30;;
39848;SDS011;25518;47.878;15.914;2023-04-23T11:55:20;5.87;;;2.70;;
39848;SDS011;25518;47.878;15.914;2023-04-23T11:58:11;7.60;;;2.63;;
39848;SDS011;25518;47.878;15.914;2023-04-23T12:01:04;5.82;;;2.70;;
39848;SDS011;25518;47.878;15.914;2023-04-23T12:03:55;5.60;;;2.60;;
39848;SDS011;25518;47.878;15.914;2023-04-23T12:06:46;5.18;;;2.80;;
39848;SDS011;25518;47.878;15.914;2023-04-23T12:09:36;4.60;;;2.58;;
39848;SDS011;25518;47.878;15.914;2023-04-23T12:12:34;4.32;;;2.55;;
39848;SDS011;25518;47.878;15.914;2023-04-23T12:15:24;7.32;;;2.78;;
39848;SDS011;25518;47.878;15.914;2023-04-23T12:18:13;4.47;;;2.55;;
39848;SDS011;25518;47.878;15.914;2023-04-23T12:21:04;4.33;;;2.70;;
39848;SDS011;25518;47.878;15.914;2023-04-23T12:23:58;5.93;;;2.78;;
39848;SDS011;25518;47.878;15.914;2023-04-23T12:26:53;5.25;;;2.75;;
39848;SDS011;25518;47.878;15.914;2023-04-23T12:29:48;5.63;;;3.03;;
39848;SDS011;25518;47.878;15.914;2023-04-23T12:32:48;5.25;;;2.40;;
39848;SDS011;25518;47.878;15.914;2023-04-23T12:35:38;4.97;;;2.50;;
39848;SDS011;25518;47.878;15.914;2023-04-23T12:38:29;4.55;;;2.90;;
39848;SDS011;25518;47.878;15.914;2023-04-23T12:41:19;4.67;;;2.70;;
39848;SDS011;25518;47.878;15.914;2023-04-23T12:44:08;6.15;;;3.10;;
39848;SDS011;25518;47.878;15.914;2023-04-23T12:47:00;3.80;;;2.80;;
39848;SDS011;25518;47.878;15.914;2023-04-23T12:49:52;7.70;;;2.80;;
39848;SDS011;25518;47.878;15.914;2023-04-23T12:52:43;6.23;;;3.03;;
39848;SDS011;25518;47.878;15.914;2023-04-23T12:55:32;6.00;;;2.92;;
39848;SDS011;25518;47.878;15.914;2023-04-23T12:58:22;6.18;;;3.00;;
39848;SDS011;25518;47.878;15.914;2023-04-23T13:01:14;4.80;;;2.95;;
39848;SDS011;25518;47.878;15.914;2023-04-23T13:04:03;4.65;;;2.75;;
39848;SDS011;25518;47.878;15.914;2023-04-23T13:06:53;4.72;;;2.83;;
39848;SDS011;25518;47.878;15.914;2023-04-23T13:09:43;4.40;;;3.03;;
39848;SDS011;25518;47.878;15.914;2023-04-23T13:12:33;4.25;;;2.72;;
39848;SDS011;25518;47.878;15.914;2023-04-23T13:15:22;4.57;;;3.00;;
39848;SDS011;25518;47.878;15.914;2023-04-23T13:18:12;5.40;;;2.95;;
39848;SDS011;25518;47.878;15.914;2023-04-23T13:21:02;5.45;;;3.08;;
39848;SDS011;25518;47.878;15.914;2023-04-23T13:23:51;4.65;;;3.03;;
39848;SDS011;25518;47.878;15.914;2023-04-23T13:26:41;4.15;;;2.65;;
39848;SDS011;25518;47.878;15.914;2023-04-23T13:29:31;4.55;;;2.17;;
39848;SDS011;25518;47.878;15.914;2023-04-23T13:32:21;3.83;;;2.08;;
39848;SDS011;25518;47.878;15.914;2023-04-23T13:35:15;4.50;;;2.20;;
39848;SDS011;25518;47.878;15.914;2023-04-23T13:38:05;3.22;;;2.05;;
39848;SDS011;25518;47.878;15.914;2023-04-23T13:40:55;4.35;;;2.38;;
39848;SDS011;25518;47.878;15.914;2023-04-23T13:43:45;4.72;;;2.22;;
39848;SDS011;25518;47.878;15.914;2023-04-23T13:46:34;4.85;;;2.33;;
39848;SDS011;25518;47.878;15.914;2023-04-23T13:49:24;5.70;;;2.33;;
39848;SDS011;25518;47.878;15.914;2023-04-23T13:52:15;3.83;;;1.92;;
39848;SDS011;25518;47.878;15.914;2023-04-23T13:55:04;4.40;;;2.20;;
39848;SDS011;25518;47.878;15.914;2023-04-23T13:57:55;4.50;;;2.72;;
39848;SDS011;25518;47.878;15.914;2023-04-23T14:00:46;3.83;;;2.15;;
39848;SDS011;25518;47.878;15.914;2023-04-23T14:03:36;5.88;;;2.92;;
39848;SDS011;25518;47.878;15.914;2023-04-23T14:06:26;4.20;;;2.38;;
39848;SDS011;25518;47.878;15.914;2023-04-23T14:09:16;4.25;;;2.35;;
39848;SDS011;25518;47.878;15.914;2023-04-23T14:12:06;5.25;;;2.40;;
39848;SDS011;25518;47.878;15.914;2023-04-23T14:14:57;3.20;;;1.80;;
39848;SDS011;25518;47.878;15.914;2023-04-23T14:17:47;2.95;;;1.80;;
39848;SDS011;25518;47.878;15.914;2023-04-23T14:20:37;3.10;;;1.70;;
39848;SDS011;25518;47.878;15.914;2023-04-23T14:23:42;4.35;;;1.75;;
39848;SDS011;25518;47.878;15.914;2023-04-23T14:26:37;4.22;;;1.85;;
39848;SDS011;25518;47.878;15.914;2023-04-23T14:29:33;5.70;;;2.05;;
39848;SDS011;25518;47.878;15.914;2023-04-23T14:32:40;3.97;;;1.77;;
39848;SDS011;25518;47.878;15.914;2023-04-23T14:35:31;3.05;;;1.77;;
39848;SDS011;25518;47.878;15.914;2023-04-23T14:38:20;4.38;;;2.10;;
39848;SDS011;25518;47.878;15.914;2023-04-23T14:41:10;4.78;;;2.00;;
39848;SDS011;25518;47.878;15.914;2023-04-23T14:44:00;4.57;;;1.92;;
39848;SDS011;25518;47.878;15.914;2023-04-23T14:46:50;4.60;;;2.15;;
39848;SDS011;25518;47.878;15.914;2023-04-23T14:49:39;4.88;;;1.80;;
39848;SDS011;25518;47.878;15.914;2023-04-23T14:52:29;5.13;;;1.75;;
39848;SDS011;25518;47.878;15.914;2023-04-23T14:55:20;3.55;;;1.70;;
39848;SDS011;25518;47.878;15.914;2023-04-23T14:58:10;3.70;;;1.90;;
39848;SDS011;25518;47.878;15.914;2023-04-23T15:01:00;3.10;;;1.70;;
39848;SDS011;25518;47.878;15.914;2023-04-23T15:03:50;3.33;;;1.65;;
39848;SDS011;25518;47.878;15.914;2023-04-23T15:06:40;2.72;;;1.60;;
39848;SDS011;25518;47.878;15.914;2023-04-23T15:09:30;3.75;;;1.63;;
39848;SDS011;25518;47.878;15.914;2023-04-23T15:15:48;3.72;;;1.63;;
39848;SDS011;25518;47.878;15.914;2023-04-23T15:18:38;4.20;;;1.70;;
39848;SDS011;25518;47.878;15.914;2023-04-23T15:21:28;3.15;;;1.90;;
39848;SDS011;25518;47.878;15.914;2023-04-23T15:24:18;3.90;;;1.98;;
39848;SDS011;25518;47.878;15.914;2023-04-23T15:27:08;3.08;;;1.80;;
39848;SDS011;25518;47.878;15.914;2023-04-23T15:30:02;3.35;;;1.80;;
39848;SDS011;25518;47.878;15.914;2023-04-23T15:32:53;3.50;;;1.70;;
39848;SDS011;25518;47.878;15.914;2023-04-23T15:35:44;4.00;;;2.33;;
39848;SDS011;25518;47.878;15.914;2023-04-23T15:38:33;3.15;;;1.90;;
39848;SDS011;25518;47.878;15.914;2023-04-23T15:41:23;4.00;;;1.92;;
39848;SDS011;25518;47.878;15.914;2023-04-23T15:44:13;4.15;;;2.65;;
39848;SDS011;25518;47.878;15.914;2023-04-23T15:47:02;3.95;;;1.70;;
39848;SDS011;25518;47.878;15.914;2023-04-23T15:49:52;5.05;;;2.65;;
39848;SDS011;25518;47.878;15.914;2023-04-23T15:52:41;4.10;;;1.98;;
39848;SDS011;25518;47.878;15.914;2023-04-23T15:55:32;3.70;;;1.90;;
39848;SDS011;25518;47.878;15.914;2023-04-23T15:58:22;3.28;;;1.90;;
39848;SDS011;25518;47.878;15.914;2023-04-23T16:01:12;4.97;;;2.00;;
39848;SDS011;25518;47.878;15.914;2023-04-23T16:04:02;5.57;;;2.40;;
39848;SDS011;25518;47.878;15.914;2023-04-23T16:06:51;4.05;;;2.10;;
39848;SDS011;25518;47.878;15.914;2023-04-23T16:09:41;3.55;;;2.20;;
39848;SDS011;25518;47.878;15.914;2023-04-23T16:12:31;3.67;;;1.90;;
39848;SDS011;25518;47.878;15.914;2023-04-23T16:15:21;4.88;;;2.15;;
39848;SDS011;25518;47.878;15.914;2023-04-23T16:18:10;5.10;;;2.20;;
39848;SDS011;25518;47.878;15.914;2023-04-23T16:21:00;3.33;;;2.20;;
39848;SDS011;25518;47.878;15.914;2023-04-23T16:23:50;5.03;;;2.15;;
39848;SDS011;25518;47.878;15.914;2023-04-23T16:26:39;3.47;;;2.03;;
39848;SDS011;25518;47.878;15.914;2023-04-23T16:29:29;4.53;;;2.40;;
39848;SDS011;25518;47.878;15.914;2023-04-23T16:32:18;3.95;;;1.92;;
39848;SDS011;25518;47.878;15.914;2023-04-23T16:35:08;4.82;;;1.85;;
39848;SDS011;25518;47.878;15.914;2023-04-23T16:37:57;6.27;;;2.07;;
39848;SDS011;25518;47.878;15.914;2023-04-23T16:40:47;4.60;;;1.98;;
39848;SDS011;25518;47.878;15.914;2023-04-23T16:43:37;3.42;;;1.67;;
39848;SDS011;25518;47.878;15.914;2023-04-23T16:46:27;3.40;;;2.08;;
39848;SDS011;25518;47.878;15.914;2023-04-23T16:49:18;4.97;;;2.53;;
39848;SDS011;25518;47.878;15.914;2023-04-23T16:52:09;4.55;;;2.30;;
39848;SDS011;25518;47.878;15.914;2023-04-23T16:54:59;4.90;;;2.10;;
39848;SDS011;25518;47.878;15.914;2023-04-23T16:57:48;2.42;;;1.30;;
39848;SDS011;25518;47.878;15.914;2023-04-23T17:00:39;4.32;;;1.52;;
39848;SDS011;25518;47.878;15.914;2023-04-23T17:03:29;2.80;;;1.93;;
39848;SDS011;25518;47.878;15.914;2023-04-23T17:06:23;5.38;;;1.45;;
39848;SDS011;25518;47.878;15.914;2023-04-23T17:09:16;2.08;;;1.20;;
39848;SDS011;25518;47.878;15.914;2023-04-23T17:12:06;3.13;;;1.67;;